createdAt,value
2018-09-04T00:00:57.523Z,19.10
2018-09-04T00:03:24.975Z,19.10
2018-09-04T00:05:52.456Z,19.00
2018-09-04T00:08:19.872Z,18.90
2018-09-04T00:10:47.363Z,19.00
2018-09-04T00:13:14.812Z,19.00
2018-09-04T00:15:42.288Z,18.90
2018-09-04T00:18:09.692Z,18.90
2018-09-04T00:20:37.120Z,18.80
2018-09-04T00:23:04.556Z,18.90
2018-09-04T00:25:32.042Z,18.80
2018-09-04T00:27:59.461Z,18.90
2018-09-04T00:30:26.911Z,18.60
2018-09-04T00:32:54.384Z,18.80
2018-09-04T00:35:21.846Z,19.10
2018-09-04T00:37:49.304Z,19.10
2018-09-04T00:40:16.737Z,18.70
2018-09-04T00:42:44.187Z,18.80
2018-09-04T00:45:11.636Z,19.10
2018-09-04T00:47:39.083Z,18.60
2018-09-04T00:50:06.759Z,18.70
2018-09-04T00:52:34.228Z,18.90
2018-09-04T00:55:01.756Z,18.60
2018-09-04T00:57:29.448Z,18.60
2018-09-04T00:59:56.888Z,18.60
2018-09-04T01:02:24.360Z,18.40
2018-09-04T01:04:51.812Z,18.60
2018-09-04T01:07:19.348Z,18.60
2018-09-04T01:09:46.840Z,18.60
2018-09-04T01:12:14.352Z,18.60
2018-09-04T01:14:41.932Z,18.50
2018-09-04T01:17:09.379Z,18.60
2018-09-04T01:19:36.820Z,18.60
2018-09-04T01:22:04.721Z,19.00
2018-09-04T01:24:32.252Z,18.60
2018-09-04T01:26:59.744Z,18.80
2018-09-04T01:29:27.168Z,18.90
2018-09-04T01:31:54.592Z,18.90
2018-09-04T01:34:21.976Z,18.70
2018-09-04T01:36:49.405Z,18.70
2018-09-04T01:39:17.097Z,18.70
2018-09-04T01:41:44.516Z,19.10
2018-09-04T01:44:11.920Z,19.00
2018-09-04T01:46:39.667Z,18.80
2018-09-04T01:49:07.076Z,18.60
2018-09-04T01:51:34.560Z,19.00
2018-09-04T01:54:02.007Z,19.00
2018-09-04T01:56:29.435Z,18.70
2018-09-04T01:58:56.862Z,18.80
2018-09-04T02:01:24.385Z,18.70
2018-09-04T02:03:51.856Z,18.70
2018-09-04T02:06:19.520Z,18.70
2018-09-04T02:08:47.000Z,18.80
2018-09-04T02:11:14.428Z,18.80
2018-09-04T02:13:41.903Z,18.80
2018-09-04T02:16:09.340Z,18.80
2018-09-04T02:18:36.775Z,18.80
2018-09-04T02:21:04.783Z,19.40
2018-09-04T02:23:32.229Z,18.80
2018-09-04T02:25:59.678Z,18.80
2018-09-04T02:28:27.137Z,19.30
2018-09-04T02:30:54.552Z,18.80
2018-09-04T02:33:22.069Z,18.80
2018-09-04T02:35:49.512Z,18.80
2018-09-04T02:38:17.016Z,19.00
2018-09-04T02:40:44.456Z,19.20
2018-09-04T02:43:11.891Z,18.90
2018-09-04T02:45:39.332Z,19.00
2018-09-04T02:48:06.812Z,19.10
2018-09-04T02:50:34.236Z,18.90
2018-09-04T02:53:01.711Z,18.90
2018-09-04T02:55:29.172Z,19.10
2018-09-04T02:57:56.622Z,18.90
2018-09-04T03:00:24.028Z,18.90
2018-09-04T03:02:52.269Z,18.90
2018-09-04T03:05:19.710Z,18.70
2018-09-04T03:07:47.280Z,19.00
2018-09-04T03:10:14.715Z,18.90
2018-09-04T03:12:42.136Z,19.20
2018-09-04T03:15:09.552Z,19.20
2018-09-04T03:17:36.963Z,19.20
2018-09-04T03:20:04.429Z,18.90
2018-09-04T03:22:31.990Z,19.00
2018-09-04T03:24:59.691Z,18.80
2018-09-04T03:27:27.207Z,19.10
2018-09-04T03:29:54.659Z,18.80
2018-09-04T03:32:22.148Z,18.90
2018-09-04T03:34:49.711Z,18.70
2018-09-04T03:37:17.149Z,18.90
2018-09-04T03:39:44.629Z,18.80
2018-09-04T03:42:12.057Z,18.70
2018-09-04T03:44:39.685Z,18.60
2018-09-04T03:47:07.272Z,18.90
2018-09-04T03:49:35.120Z,18.50
2018-09-04T03:52:02.705Z,18.60
2018-09-04T03:54:30.903Z,18.50
2018-09-04T03:56:58.347Z,18.50
2018-09-04T03:59:25.878Z,18.40
2018-09-04T04:01:53.420Z,18.40
2018-09-04T04:04:20.840Z,18.30
2018-09-04T04:06:48.392Z,18.30
2018-09-04T04:09:15.859Z,18.30
2018-09-04T04:11:43.293Z,18.80
2018-09-04T04:14:10.745Z,18.10
2018-09-04T04:16:38.219Z,18.40
2018-09-04T04:19:05.658Z,18.20
2018-09-04T04:21:33.176Z,18.20
2018-09-04T04:24:00.724Z,18.10
2018-09-04T04:26:28.164Z,18.30
2018-09-04T04:28:55.608Z,18.00
2018-09-04T04:31:23.003Z,18.10
2018-09-04T04:33:50.448Z,18.40
2018-09-04T04:36:17.916Z,18.00
2018-09-04T04:38:45.332Z,18.20
2018-09-04T04:41:12.788Z,18.00
2018-09-04T04:43:40.202Z,18.30
2018-09-04T04:46:07.611Z,17.90
2018-09-04T04:48:35.032Z,17.90
2018-09-04T04:51:02.572Z,18.20
2018-09-04T04:53:30.048Z,18.00
2018-09-04T04:55:57.483Z,17.90
2018-09-04T04:58:24.898Z,17.80
2018-09-04T05:00:52.303Z,18.00
2018-09-04T05:03:19.735Z,17.80
2018-09-04T05:05:47.224Z,18.00
2018-09-04T05:08:14.631Z,17.80
2018-09-04T05:10:42.092Z,17.60
2018-09-04T05:13:09.664Z,17.80
2018-09-04T05:15:37.100Z,17.70
2018-09-04T05:18:04.681Z,17.70
2018-09-04T05:20:32.197Z,18.00
2018-09-04T05:22:59.724Z,17.70
2018-09-04T05:25:27.297Z,17.80
2018-09-04T05:27:54.748Z,17.80
2018-09-04T05:30:22.266Z,17.80
2018-09-04T05:32:55.585Z,18.10
2018-09-04T05:35:23.044Z,17.90
2018-09-04T05:37:50.492Z,17.80
2018-09-04T05:40:17.989Z,17.80
2018-09-04T05:42:49.328Z,17.80
2018-09-04T05:45:17.093Z,17.80
2018-09-04T05:47:44.640Z,17.80
2018-09-04T05:50:12.206Z,18.10
2018-09-04T05:52:40.232Z,17.80
2018-09-04T05:55:07.829Z,17.80
2018-09-04T05:57:35.360Z,17.80
2018-09-04T06:00:06.097Z,17.80
2018-09-04T06:02:33.644Z,17.80
2018-09-04T06:05:01.228Z,17.80
2018-09-04T06:07:28.740Z,17.90
2018-09-04T06:09:56.284Z,18.10
2018-09-04T06:12:23.760Z,18.00
2018-09-04T06:14:51.273Z,18.30
2018-09-04T06:17:18.812Z,18.20
2018-09-04T06:19:46.324Z,18.30
2018-09-04T06:22:13.857Z,18.70
2018-09-04T06:24:41.468Z,18.90
2018-09-04T06:27:08.925Z,18.60
2018-09-04T06:29:36.411Z,18.80
2018-09-04T06:32:03.803Z,18.90
2018-09-04T06:34:31.315Z,19.30
2018-09-04T06:36:58.992Z,19.10
2018-09-04T06:39:26.444Z,19.20
2018-09-04T06:41:53.924Z,19.30
2018-09-04T06:44:21.384Z,19.50
2018-09-04T06:46:48.942Z,19.40
2018-09-04T06:49:16.420Z,19.80
2018-09-04T06:51:43.899Z,19.70
2018-09-04T06:54:11.649Z,20.10
2018-09-04T06:56:39.089Z,19.90
2018-09-04T06:59:06.565Z,19.70
2018-09-04T07:01:34.122Z,19.60
2018-09-04T07:04:01.873Z,19.90
2018-09-04T07:06:29.365Z,20.00
2018-09-04T07:08:56.937Z,20.00
2018-09-04T07:11:24.384Z,20.00
2018-09-04T07:13:51.816Z,20.10
2018-09-04T07:16:19.237Z,20.20
2018-09-04T07:18:46.793Z,20.60
2018-09-04T07:21:14.217Z,20.40
2018-09-04T07:23:41.639Z,20.70
2018-09-04T07:26:13.685Z,21.00
2018-09-04T07:28:41.182Z,20.60
2018-09-04T07:31:08.660Z,20.70
2018-09-04T07:33:36.221Z,20.80
2018-09-04T07:36:03.769Z,20.90
2018-09-04T07:38:31.329Z,21.10
2018-09-04T07:40:58.804Z,21.20
2018-09-04T07:43:26.241Z,21.40
2018-09-04T07:45:53.683Z,21.80
2018-09-04T07:48:21.104Z,21.60
2018-09-04T07:50:48.583Z,21.70
2018-09-04T07:53:19.504Z,21.80
2018-09-04T07:55:47.071Z,21.80
2018-09-04T07:58:14.554Z,21.80
2018-09-04T08:00:42.065Z,21.90
2018-09-04T08:03:09.479Z,22.20
2018-09-04T08:05:36.891Z,22.20
2018-09-04T08:08:04.360Z,22.10
2018-09-04T08:10:34.227Z,22.60
2018-09-04T08:13:03.373Z,22.50
2018-09-04T08:15:30.884Z,22.50
2018-09-04T08:17:58.491Z,22.60
2018-09-04T08:20:26.141Z,22.60
2018-09-04T08:22:54.354Z,22.70
2018-09-04T08:25:22.329Z,23.10
2018-09-04T08:27:49.772Z,23.30
2018-09-04T08:30:17.222Z,23.30
2018-09-04T08:32:44.684Z,23.20
2018-09-04T08:35:12.084Z,23.10
2018-09-04T08:37:39.536Z,23.10
2018-09-04T08:40:07.065Z,23.10
2018-09-04T08:42:34.560Z,23.30
2018-09-04T08:45:02.122Z,23.30
2018-09-04T08:47:30.069Z,23.10
2018-09-04T08:49:57.542Z,23.20
2018-09-04T08:52:24.995Z,23.20
2018-09-04T08:54:52.438Z,23.10
2018-09-04T08:57:19.895Z,23.10
2018-09-04T08:59:47.454Z,23.10
2018-09-04T09:02:14.887Z,23.20
2018-09-04T09:04:42.313Z,23.30
2018-09-04T09:07:09.734Z,23.50
2018-09-04T09:09:37.133Z,23.60
2018-09-04T09:12:04.625Z,23.50
2018-09-04T09:14:32.145Z,23.40
2018-09-04T09:16:59.622Z,23.90
2018-09-04T09:19:27.176Z,23.50
2018-09-04T09:21:54.736Z,23.60
2018-09-04T09:24:22.146Z,23.70
2018-09-04T09:26:49.680Z,24.20
2018-09-04T09:29:17.136Z,23.90
2018-09-04T09:31:44.544Z,23.70
2018-09-04T09:34:12.018Z,23.70
2018-09-04T09:36:39.479Z,23.80
2018-09-04T09:39:08.100Z,23.60
2018-09-04T09:41:36.732Z,23.90
2018-09-04T09:44:04.165Z,23.80
2018-09-04T09:46:31.639Z,23.80
2018-09-04T09:48:59.061Z,23.80
2018-09-04T09:51:26.541Z,24.10
2018-09-04T09:53:53.960Z,24.10
2018-09-04T09:56:21.408Z,24.10
2018-09-04T09:58:48.797Z,24.30
2018-09-04T10:01:23.928Z,24.60
2018-09-04T10:03:59.579Z,24.90
2018-09-04T10:06:27.409Z,25.00
2018-09-04T10:08:54.944Z,24.90
2018-09-04T10:11:22.532Z,24.70
2018-09-04T10:13:50.176Z,24.70
2018-09-04T10:16:17.757Z,24.90
2018-09-04T10:18:45.250Z,24.80
2018-09-04T10:21:12.846Z,24.80
2018-09-04T10:23:40.224Z,25.10
2018-09-04T10:26:07.712Z,25.10
2018-09-04T10:28:35.160Z,25.10
2018-09-04T10:31:02.639Z,25.10
2018-09-04T10:33:30.115Z,25.50
2018-09-04T10:35:57.735Z,25.80
2018-09-04T10:38:26.753Z,25.80
2018-09-04T10:41:00.385Z,25.70
2018-09-04T10:43:28.994Z,25.60
2018-09-04T10:45:59.783Z,25.60
2018-09-04T10:48:27.689Z,25.80
2018-09-04T10:50:55.145Z,25.80
2018-09-04T10:53:22.569Z,25.80
2018-09-04T10:55:50.045Z,25.90
2018-09-04T10:58:17.461Z,25.90
2018-09-04T11:00:44.952Z,25.90
2018-09-04T11:03:12.516Z,26.10
2018-09-04T11:05:40.165Z,26.10
2018-09-04T11:08:07.698Z,26.20
2018-09-04T11:10:35.166Z,26.50
2018-09-04T11:13:02.664Z,26.00
2018-09-04T11:15:30.166Z,26.00
2018-09-04T11:17:57.656Z,26.00
2018-09-04T11:20:25.224Z,25.90
2018-09-04T11:22:52.789Z,25.80
2018-09-04T11:25:20.481Z,25.70
2018-09-04T11:27:48.020Z,25.60
2018-09-04T11:30:15.466Z,25.70
2018-09-04T11:32:43.087Z,25.80
2018-09-04T11:35:11.048Z,26.40
2018-09-04T11:37:38.557Z,26.10
2018-09-04T11:40:06.961Z,26.20
2018-09-04T11:42:35.056Z,26.50
2018-09-04T11:45:02.525Z,26.30
2018-09-04T11:47:29.924Z,26.60
2018-09-04T11:49:57.176Z,26.60
2018-09-04T11:52:24.506Z,26.60
2018-09-04T11:54:51.796Z,26.70
2018-09-04T11:57:19.144Z,26.40
2018-09-04T11:59:46.504Z,26.10
2018-09-04T12:02:18.274Z,26.40
2018-09-04T12:04:45.465Z,26.20
2018-09-04T12:07:12.707Z,26.40
2018-09-04T12:09:40.690Z,26.50
2018-09-04T12:12:07.936Z,26.50
2018-09-04T12:14:36.646Z,26.60
2018-09-04T12:17:05.832Z,26.70
2018-09-04T12:19:41.276Z,26.70
2018-09-04T12:22:08.737Z,26.40
2018-09-04T12:24:36.008Z,26.70
2018-09-04T12:27:03.287Z,26.90
2018-09-04T12:29:30.577Z,26.30
2018-09-04T12:31:59.625Z,26.60
2018-09-04T12:34:26.889Z,26.50
2018-09-04T12:36:54.188Z,26.80
2018-09-04T12:39:21.413Z,26.90
2018-09-04T12:41:49.403Z,26.80
2018-09-04T12:44:16.814Z,26.80
2018-09-04T12:46:44.164Z,27.10
2018-09-04T12:49:11.465Z,27.50
2018-09-04T12:51:38.692Z,27.20
2018-09-04T12:54:05.971Z,27.40
2018-09-04T12:56:33.324Z,27.40
2018-09-04T12:59:00.576Z,27.50
2018-09-04T13:01:27.824Z,27.40
2018-09-04T13:03:55.613Z,27.50
2018-09-04T13:06:22.846Z,27.80
2018-09-04T13:08:50.099Z,27.70
2018-09-04T13:11:17.345Z,27.80
2018-09-04T13:13:44.626Z,27.80
2018-09-04T13:16:11.920Z,27.70
2018-09-04T13:18:39.108Z,27.80
2018-09-04T13:21:06.346Z,27.90
2018-09-04T13:23:34.732Z,28.10
2018-09-04T13:26:02.456Z,27.80
2018-09-04T13:28:30.324Z,27.90
2018-09-04T13:30:57.628Z,27.90
2018-09-04T13:33:24.961Z,27.90
2018-09-04T13:35:52.321Z,28.10
2018-09-04T13:38:20.022Z,27.90
2018-09-04T13:40:47.497Z,27.70
2018-09-04T13:43:14.809Z,27.80
2018-09-04T13:45:42.534Z,28.10
2018-09-04T13:48:09.789Z,27.90
2018-09-04T13:50:37.044Z,28.10
2018-09-04T13:53:04.424Z,27.90
2018-09-04T13:55:31.690Z,28.00
2018-09-04T13:57:58.924Z,28.10
2018-09-04T14:00:26.429Z,28.20
2018-09-04T14:02:53.689Z,28.10
2018-09-04T14:05:21.007Z,28.20
2018-09-04T14:07:48.438Z,28.20
2018-09-04T14:10:15.724Z,28.30
2018-09-04T14:12:42.952Z,28.60
2018-09-04T14:15:10.507Z,28.50
2018-09-04T14:17:37.742Z,28.50
2018-09-04T14:20:05.937Z,28.70
2018-09-04T14:22:33.285Z,28.60
2018-09-04T14:25:00.450Z,28.50
2018-09-04T14:27:27.688Z,28.70
2018-09-04T14:30:15.538Z,28.40
2018-09-04T14:32:22.121Z,28.40
2018-09-04T14:34:49.707Z,28.40
2018-09-04T14:37:17.314Z,28.40
2018-09-04T14:39:44.655Z,28.50
2018-09-04T14:42:12.185Z,28.50
2018-09-04T14:44:39.560Z,28.50
2018-09-04T14:47:07.015Z,28.60
2018-09-04T14:49:34.505Z,28.60
2018-09-04T14:52:02.092Z,28.40
2018-09-04T14:54:29.708Z,28.50
2018-09-04T14:56:57.200Z,28.50
2018-09-04T14:59:24.640Z,28.50
2018-09-04T15:01:52.084Z,28.50
2018-09-04T15:04:19.569Z,28.70
2018-09-04T15:06:47.199Z,28.40
2018-09-04T15:09:14.644Z,28.20
2018-09-04T15:11:42.084Z,28.40
2018-09-04T15:14:09.521Z,28.30
2018-09-04T15:16:37.006Z,28.20
2018-09-04T15:19:04.569Z,28.50
2018-09-04T15:21:32.043Z,28.20
2018-09-04T15:23:59.473Z,28.40
2018-09-04T15:26:26.948Z,28.10
2018-09-04T15:28:54.375Z,28.20
2018-09-04T15:31:22.866Z,28.20
2018-09-04T15:33:50.350Z,28.40
2018-09-04T15:36:17.822Z,28.40
2018-09-04T15:38:45.269Z,28.40
2018-09-04T15:41:12.704Z,28.10
2018-09-04T15:43:40.145Z,28.40
2018-09-04T15:46:07.712Z,28.50
2018-09-04T15:48:35.128Z,28.20
2018-09-04T15:51:02.593Z,28.40
2018-09-04T15:53:30.036Z,28.20
2018-09-04T15:55:57.615Z,28.20
2018-09-04T15:58:25.044Z,28.10
2018-09-04T16:00:52.464Z,28.00
2018-09-04T16:03:19.964Z,27.80
2018-09-04T16:05:47.631Z,27.80
2018-09-04T16:08:15.116Z,27.70
2018-09-04T16:10:42.584Z,27.60
2018-09-04T16:13:10.035Z,27.80
2018-09-04T16:15:37.505Z,27.60
2018-09-04T16:18:04.945Z,27.50
2018-09-04T16:20:32.442Z,27.40
2018-09-04T16:22:59.880Z,27.20
2018-09-04T16:25:27.368Z,27.30
2018-09-04T16:27:54.819Z,27.20
2018-09-04T16:30:22.277Z,26.90
2018-09-04T16:32:49.760Z,26.80
2018-09-04T16:35:17.243Z,26.80
2018-09-04T16:37:44.753Z,26.60
2018-09-04T16:40:12.961Z,26.50
2018-09-04T16:42:40.408Z,26.30
2018-09-04T16:45:07.961Z,26.20
2018-09-04T16:47:35.501Z,26.20
2018-09-04T16:50:03.033Z,26.10
2018-09-04T16:52:30.629Z,26.10
2018-09-04T16:54:58.160Z,25.70
2018-09-04T16:57:25.748Z,25.80
2018-09-04T16:59:53.156Z,25.70
2018-09-04T17:02:20.616Z,25.70
2018-09-04T17:04:48.218Z,25.30
2018-09-04T17:07:16.076Z,25.60
2018-09-04T17:09:43.602Z,25.80
2018-09-04T17:12:12.171Z,25.70
2018-09-04T17:14:39.709Z,25.60
2018-09-04T17:17:07.192Z,25.40
2018-09-04T17:19:34.824Z,25.40
2018-09-04T17:22:02.338Z,25.30
2018-09-04T17:24:29.939Z,25.30
2018-09-04T17:26:57.399Z,25.20
2018-09-04T17:29:24.872Z,25.20
2018-09-04T17:31:52.349Z,25.10
2018-09-04T17:34:19.883Z,25.50
2018-09-04T17:36:48.257Z,25.10
2018-09-04T17:39:15.814Z,25.10
2018-09-04T17:41:43.289Z,25.10
2018-09-04T17:44:10.748Z,25.20
2018-09-04T17:46:38.177Z,24.90
2018-09-04T17:49:05.643Z,24.90
2018-09-04T17:51:33.802Z,24.80
2018-09-04T17:54:01.304Z,24.70
2018-09-04T17:56:28.848Z,24.70
2018-09-04T17:58:56.387Z,24.50
2018-09-04T18:01:23.917Z,24.60
2018-09-04T18:03:51.582Z,24.40
2018-09-04T18:06:19.192Z,24.40
2018-09-04T18:08:50.958Z,24.40
2018-09-04T18:11:20.614Z,24.40
2018-09-04T18:13:49.329Z,24.40
2018-09-04T18:16:26.578Z,24.30
2018-09-04T18:18:54.037Z,24.30
2018-09-04T18:21:21.632Z,24.20
2018-09-04T18:23:49.258Z,24.50
2018-09-04T18:26:16.782Z,24.10
2018-09-04T18:28:44.319Z,24.10
2018-09-04T18:31:11.798Z,24.10
2018-09-04T18:33:39.256Z,24.00
2018-09-04T18:36:10.447Z,24.00
2018-09-04T18:38:37.904Z,23.90
2018-09-04T18:41:05.884Z,23.90
2018-09-04T18:43:36.989Z,23.90
2018-09-04T18:46:04.532Z,23.80
2018-09-04T18:48:31.971Z,23.90
2018-09-04T18:50:59.451Z,23.80
2018-09-04T18:53:26.888Z,23.90
2018-09-04T18:55:54.375Z,23.40
2018-09-04T18:58:21.851Z,23.60
2018-09-04T19:00:49.447Z,23.60
2018-09-04T19:06:09.856Z,23.50
2018-09-04T19:08:37.364Z,23.50
2018-09-04T19:11:04.947Z,23.40
2018-09-04T19:13:34.455Z,23.30
2018-09-04T19:16:02.028Z,23.30
2018-09-04T19:18:31.584Z,23.30
2018-09-04T19:20:59.049Z,23.20
2018-09-04T19:23:26.473Z,23.20
2018-09-04T19:25:55.020Z,23.30
2018-09-04T19:28:22.540Z,23.20
2018-09-04T19:30:50.042Z,23.10
2018-09-04T19:33:17.593Z,23.30
2018-09-04T19:35:45.057Z,23.10
2018-09-04T19:38:12.516Z,23.20
2018-09-04T19:40:40.058Z,22.90
2018-09-04T19:43:07.568Z,23.20
2018-09-04T19:45:35.089Z,22.90
2018-09-04T19:49:18.315Z,22.60
2018-09-04T19:51:45.830Z,22.80
2018-09-04T19:54:13.403Z,22.80
2018-09-04T19:56:40.899Z,23.00
2018-09-04T19:59:08.397Z,22.80
2018-09-04T20:01:35.893Z,22.70
2018-09-04T20:04:03.529Z,22.70
2018-09-04T20:06:31.368Z,22.60
2018-09-04T20:08:59.077Z,22.60
2018-09-04T20:11:26.994Z,22.60
2018-09-04T20:13:54.535Z,22.50
2018-09-04T20:16:22.109Z,22.90
2018-09-04T20:18:49.726Z,22.40
2018-09-04T20:21:17.408Z,22.40
2018-09-04T20:23:45.293Z,22.40
2018-09-04T20:26:12.817Z,22.30
2018-09-04T20:28:40.452Z,22.30
2018-09-04T20:31:07.958Z,22.20
2018-09-04T20:33:35.573Z,22.20
2018-09-04T20:36:03.285Z,22.20
2018-09-04T20:38:32.250Z,22.20
2018-09-04T20:41:02.294Z,22.00
2018-09-04T20:43:30.454Z,22.10
2018-09-04T20:45:58.010Z,22.10
2018-09-04T20:48:25.464Z,22.10
2018-09-04T20:50:53.026Z,22.50
2018-09-04T20:53:20.690Z,22.00
2018-09-04T20:55:48.608Z,22.00
2018-09-04T20:58:27.768Z,22.00
2018-09-04T21:01:06.723Z,22.00
2018-09-04T21:03:45.707Z,22.00
2018-09-04T21:06:24.609Z,21.80
2018-09-04T21:09:00.362Z,21.90
2018-09-04T21:11:27.763Z,21.90
2018-09-04T21:13:55.327Z,21.90
2018-09-04T21:16:22.727Z,21.90
2018-09-04T21:18:50.331Z,21.90
2018-09-04T21:21:17.663Z,21.90
2018-09-04T21:23:45.050Z,21.80
2018-09-04T21:26:12.397Z,21.70
2018-09-04T21:28:39.665Z,21.90
2018-09-04T21:31:07.030Z,21.90
2018-09-04T21:33:34.320Z,21.90
2018-09-04T21:36:01.816Z,21.90
2018-09-04T21:38:29.228Z,21.80
2018-09-04T21:40:56.496Z,21.90
2018-09-04T21:43:23.791Z,22.10
2018-09-04T21:45:52.173Z,21.80
2018-09-04T21:48:19.450Z,21.90
2018-09-04T21:50:46.832Z,21.90
2018-09-04T21:53:14.075Z,21.90
2018-09-04T21:55:41.346Z,21.90
2018-09-04T21:58:09.125Z,21.80
2018-09-04T22:00:36.407Z,21.80
2018-09-04T22:03:03.813Z,21.80
2018-09-04T22:05:31.259Z,21.90
2018-09-04T22:08:00.092Z,21.80
2018-09-04T22:10:27.449Z,21.80
2018-09-04T22:12:55.259Z,21.80
2018-09-04T22:15:23.396Z,21.80
2018-09-04T22:17:50.893Z,22.30
2018-09-04T22:20:18.157Z,21.80
2018-09-04T22:22:45.429Z,21.80
2018-09-04T22:25:12.701Z,22.00
2018-09-04T22:27:40.192Z,21.90
2018-09-04T22:30:07.471Z,21.80
2018-09-04T22:32:35.087Z,21.90
2018-09-04T22:35:02.696Z,21.70
2018-09-04T22:37:30.005Z,21.70
2018-09-04T22:39:57.251Z,21.70
2018-09-04T22:42:24.652Z,21.70
2018-09-04T22:44:51.937Z,21.70
2018-09-04T22:47:19.286Z,21.80
2018-09-04T22:49:52.139Z,21.80
2018-09-04T22:52:24.036Z,21.70
2018-09-04T22:54:53.448Z,21.70
2018-09-04T22:57:20.754Z,21.60
2018-09-04T22:59:48.055Z,21.60
2018-09-04T23:02:15.351Z,21.70
2018-09-04T23:04:42.756Z,21.60
2018-09-04T23:07:10.091Z,21.50
2018-09-04T23:09:37.556Z,21.50
2018-09-04T23:12:05.434Z,21.80
2018-09-04T23:14:32.773Z,21.50
2018-09-04T23:17:00.241Z,21.50
2018-09-04T23:19:27.525Z,21.50
2018-09-04T23:21:54.805Z,21.40
2018-09-04T23:24:22.053Z,21.50
2018-09-04T23:26:49.497Z,21.40
2018-09-04T23:29:16.995Z,21.40
2018-09-04T23:31:44.378Z,21.30
2018-09-04T23:34:11.851Z,21.30
2018-09-04T23:36:39.138Z,21.30
2018-09-04T23:39:06.394Z,21.20
2018-09-04T23:41:33.678Z,21.20
2018-09-04T23:44:00.974Z,21.10
2018-09-04T23:46:30.338Z,21.10
2018-09-04T23:48:57.589Z,21.20
2018-09-04T23:51:24.923Z,21.00
2018-09-04T23:53:52.149Z,21.00
2018-09-04T23:56:19.396Z,20.80
2018-09-04T23:58:46.709Z,21.20
